sensor_id;sensor_type;location;lat;lon;timestamp;P1;durP1;ratioP1;P2;durP2;ratioP2
20324;SDS011;10320;49.482;11.256;2023-07-13T00:00:25;2.33;;;2.00;;
20324;SDS011;10320;49.482;11.256;2023-07-13T00:02:51;4.20;;;2.40;;
20324;SDS011;10320;49.482;11.256;2023-07-13T00:05:19;3.17;;;2.05;;
20324;SDS011;10320;49.482;11.256;2023-07-13T00:07:45;3.75;;;2.10;;
20324;SDS011;10320;49.482;11.256;2023-07-13T00:10:11;3.08;;;2.17;;
20324;SDS011;10320;49.482;11.256;2023-07-13T00:12:37;2.20;;;2.00;;
20324;SDS011;10320;49.482;11.256;2023-07-13T00:15:05;2.70;;;1.85;;
20324;SDS011;10320;49.482;11.256;2023-07-13T00:17:32;2.20;;;1.90;;
20324;SDS011;10320;49.482;11.256;2023-07-13T00:19:58;2.80;;;1.83;;
20324;SDS011;10320;49.482;11.256;2023-07-13T00:22:24;2.70;;;2.00;;
20324;SDS011;10320;49.482;11.256;2023-07-13T00:24:51;2.05;;;1.88;;
20324;SDS011;10320;49.482;11.256;2023-07-13T00:27:17;2.17;;;1.90;;
20324;SDS011;10320;49.482;11.256;2023-07-13T00:29:43;3.28;;;2.13;;
20324;SDS011;10320;49.482;11.256;2023-07-13T00:32:09;2.78;;;1.77;;
20324;SDS011;10320;49.482;11.256;2023-07-13T00:34:36;2.08;;;1.77;;
20324;SDS011;10320;49.482;11.256;2023-07-13T00:37:02;3.33;;;1.80;;
20324;SDS011;10320;49.482;11.256;2023-07-13T00:39:29;2.80;;;1.80;;
20324;SDS011;10320;49.482;11.256;2023-07-13T00:41:55;2.65;;;1.90;;
20324;SDS011;10320;49.482;11.256;2023-07-13T00:44:21;2.08;;;1.70;;
20324;SDS011;10320;49.482;11.256;2023-07-13T00:46:48;2.53;;;1.90;;
20324;SDS011;10320;49.482;11.256;2023-07-13T00:49:16;2.03;;;1.58;;
20324;SDS011;10320;49.482;11.256;2023-07-13T00:52:16;2.13;;;1.70;;
20324;SDS011;10320;49.482;11.256;2023-07-13T00:54:36;3.83;;;1.88;;
20324;SDS011;10320;49.482;11.256;2023-07-13T00:57:05;2.67;;;2.03;;
20324;SDS011;10320;49.482;11.256;2023-07-13T00:59:32;2.50;;;1.80;;
20324;SDS011;10320;49.482;11.256;2023-07-13T01:02:00;3.03;;;1.80;;
20324;SDS011;10320;49.482;11.256;2023-07-13T01:04:26;2.83;;;2.17;;
20324;SDS011;10320;49.482;11.256;2023-07-13T01:06:52;1.83;;;1.73;;
20324;SDS011;10320;49.482;11.256;2023-07-13T01:09:18;3.83;;;2.00;;
20324;SDS011;10320;49.482;11.256;2023-07-13T01:11:45;3.42;;;2.15;;
20324;SDS011;10320;49.482;11.256;2023-07-13T01:14:13;1.92;;;1.75;;
20324;SDS011;10320;49.482;11.256;2023-07-13T01:16:40;3.00;;;1.90;;
20324;SDS011;10320;49.482;11.256;2023-07-13T01:21:55;3.13;;;1.98;;
20324;SDS011;10320;49.482;11.256;2023-07-13T01:24:21;2.22;;;1.80;;
20324;SDS011;10320;49.482;11.256;2023-07-13T01:26:47;3.17;;;2.03;;
20324;SDS011;10320;49.482;11.256;2023-07-13T01:29:13;3.08;;;1.77;;
20324;SDS011;10320;49.482;11.256;2023-07-13T01:31:39;2.33;;;2.13;;
20324;SDS011;10320;49.482;11.256;2023-07-13T01:34:05;2.45;;;2.00;;
20324;SDS011;10320;49.482;11.256;2023-07-13T01:36:31;2.30;;;2.00;;
20324;SDS011;10320;49.482;11.256;2023-07-13T01:38:57;2.90;;;1.83;;
20324;SDS011;10320;49.482;11.256;2023-07-13T01:41:23;2.15;;;1.90;;
20324;SDS011;10320;49.482;11.256;2023-07-13T01:43:49;2.20;;;2.00;;
20324;SDS011;10320;49.482;11.256;2023-07-13T01:46:15;2.53;;;1.95;;
20324;SDS011;10320;49.482;11.256;2023-07-13T01:48:41;3.45;;;2.15;;
20324;SDS011;10320;49.482;11.256;2023-07-13T01:51:07;3.05;;;2.00;;
20324;SDS011;10320;49.482;11.256;2023-07-13T01:53:33;2.70;;;1.85;;
20324;SDS011;10320;49.482;11.256;2023-07-13T01:55:59;3.80;;;2.00;;
20324;SDS011;10320;49.482;11.256;2023-07-13T01:58:25;4.20;;;1.90;;
20324;SDS011;10320;49.482;11.256;2023-07-13T02:00:51;4.28;;;2.10;;
20324;SDS011;10320;49.482;11.256;2023-07-13T02:03:17;2.20;;;2.00;;
20324;SDS011;10320;49.482;11.256;2023-07-13T02:05:44;3.15;;;2.05;;
20324;SDS011;10320;49.482;11.256;2023-07-13T02:08:10;2.53;;;2.22;;
20324;SDS011;10320;49.482;11.256;2023-07-13T02:10:37;2.78;;;1.83;;
20324;SDS011;10320;49.482;11.256;2023-07-13T02:13:04;4.20;;;2.10;;
20324;SDS011;10320;49.482;11.256;2023-07-13T02:15:30;3.03;;;2.30;;
20324;SDS011;10320;49.482;11.256;2023-07-13T02:17:56;2.42;;;2.08;;
20324;SDS011;10320;49.482;11.256;2023-07-13T02:20:23;2.58;;;1.92;;
20324;SDS011;10320;49.482;11.256;2023-07-13T02:22:49;4.38;;;2.15;;
20324;SDS011;10320;49.482;11.256;2023-07-13T02:25:16;1.90;;;1.70;;
20324;SDS011;10320;49.482;11.256;2023-07-13T02:27:42;2.70;;;1.80;;
20324;SDS011;10320;49.482;11.256;2023-07-13T02:30:08;3.40;;;2.22;;
20324;SDS011;10320;49.482;11.256;2023-07-13T02:32:34;2.95;;;2.15;;
20324;SDS011;10320;49.482;11.256;2023-07-13T02:35:00;2.00;;;1.80;;
20324;SDS011;10320;49.482;11.256;2023-07-13T02:37:26;2.75;;;2.35;;
20324;SDS011;10320;49.482;11.256;2023-07-13T02:39:52;3.35;;;2.00;;
20324;SDS011;10320;49.482;11.256;2023-07-13T02:42:19;2.90;;;2.10;;
20324;SDS011;10320;49.482;11.256;2023-07-13T02:44:45;2.75;;;2.22;;
20324;SDS011;10320;49.482;11.256;2023-07-13T02:47:11;2.80;;;2.05;;
20324;SDS011;10320;49.482;11.256;2023-07-13T02:49:38;2.13;;;1.83;;
20324;SDS011;10320;49.482;11.256;2023-07-13T02:52:04;2.97;;;1.80;;
20324;SDS011;10320;49.482;11.256;2023-07-13T02:54:30;2.22;;;2.03;;
20324;SDS011;10320;49.482;11.256;2023-07-13T02:56:56;2.78;;;2.10;;
20324;SDS011;10320;49.482;11.256;2023-07-13T02:59:22;2.65;;;2.25;;
20324;SDS011;10320;49.482;11.256;2023-07-13T03:01:48;3.17;;;1.90;;
20324;SDS011;10320;49.482;11.256;2023-07-13T03:04:14;2.30;;;2.10;;
20324;SDS011;10320;49.482;11.256;2023-07-13T03:06:44;2.58;;;1.95;;
20324;SDS011;10320;49.482;11.256;2023-07-13T03:09:10;3.47;;;2.45;;
20324;SDS011;10320;49.482;11.256;2023-07-13T03:11:37;2.10;;;1.87;;
20324;SDS011;10320;49.482;11.256;2023-07-13T03:14:04;2.83;;;2.20;;
20324;SDS011;10320;49.482;11.256;2023-07-13T03:16:30;4.05;;;2.30;;
20324;SDS011;10320;49.482;11.256;2023-07-13T03:18:56;2.57;;;2.20;;
20324;SDS011;10320;49.482;11.256;2023-07-13T03:21:22;2.50;;;2.28;;
20324;SDS011;10320;49.482;11.256;2023-07-13T03:23:48;2.10;;;1.90;;
20324;SDS011;10320;49.482;11.256;2023-07-13T03:26:15;2.90;;;2.20;;
20324;SDS011;10320;49.482;11.256;2023-07-13T03:28:42;2.28;;;2.08;;
20324;SDS011;10320;49.482;11.256;2023-07-13T03:31:09;2.83;;;2.20;;
20324;SDS011;10320;49.482;11.256;2023-07-13T03:33:36;2.73;;;2.40;;
20324;SDS011;10320;49.482;11.256;2023-07-13T03:36:03;2.93;;;2.07;;
20324;SDS011;10320;49.482;11.256;2023-07-13T03:38:30;2.47;;;2.10;;
20324;SDS011;10320;49.482;11.256;2023-07-13T03:40:56;2.50;;;2.30;;
20324;SDS011;10320;49.482;11.256;2023-07-13T03:43:22;3.47;;;2.33;;
20324;SDS011;10320;49.482;11.256;2023-07-13T03:45:48;2.87;;;2.43;;
20324;SDS011;10320;49.482;11.256;2023-07-13T03:48:14;2.50;;;2.27;;
20324;SDS011;10320;49.482;11.256;2023-07-13T03:50:40;3.50;;;2.50;;
20324;SDS011;10320;49.482;11.256;2023-07-13T03:53:06;3.03;;;2.30;;
20324;SDS011;10320;49.482;11.256;2023-07-13T03:55:32;3.70;;;2.30;;
20324;SDS011;10320;49.482;11.256;2023-07-13T03:58:01;2.83;;;2.17;;
20324;SDS011;10320;49.482;11.256;2023-07-13T04:00:27;3.57;;;2.50;;
20324;SDS011;10320;49.482;11.256;2023-07-13T04:02:53;3.73;;;2.53;;
20324;SDS011;10320;49.482;11.256;2023-07-13T04:05:19;3.63;;;2.53;;
20324;SDS011;10320;49.482;11.256;2023-07-13T04:07:45;2.13;;;1.90;;
20324;SDS011;10320;49.482;11.256;2023-07-13T04:10:11;2.50;;;2.30;;
20324;SDS011;10320;49.482;11.256;2023-07-13T04:12:37;2.60;;;2.17;;
20324;SDS011;10320;49.482;11.256;2023-07-13T04:15:03;3.43;;;2.30;;
20324;SDS011;10320;49.482;11.256;2023-07-13T04:17:30;2.70;;;2.20;;
20324;SDS011;10320;49.482;11.256;2023-07-13T04:19:56;2.10;;;1.90;;
20324;SDS011;10320;49.482;11.256;2023-07-13T04:22:22;3.30;;;2.60;;
20324;SDS011;10320;49.482;11.256;2023-07-13T04:24:48;2.40;;;2.20;;
20324;SDS011;10320;49.482;11.256;2023-07-13T04:27:14;2.47;;;2.13;;
20324;SDS011;10320;49.482;11.256;2023-07-13T04:29:40;2.43;;;2.07;;
20324;SDS011;10320;49.482;11.256;2023-07-13T04:32:06;2.42;;;2.20;;
20324;SDS011;10320;49.482;11.256;2023-07-13T04:34:33;4.23;;;2.40;;
20324;SDS011;10320;49.482;11.256;2023-07-13T04:36:59;2.47;;;2.27;;
20324;SDS011;10320;49.482;11.256;2023-07-13T04:39:26;2.70;;;2.10;;
20324;SDS011;10320;49.482;11.256;2023-07-13T04:41:52;3.37;;;2.30;;
20324;SDS011;10320;49.482;11.256;2023-07-13T04:44:18;4.10;;;2.50;;
20324;SDS011;10320;49.482;11.256;2023-07-13T04:46:44;2.50;;;2.27;;
20324;SDS011;10320;49.482;11.256;2023-07-13T04:49:10;2.50;;;2.00;;
20324;SDS011;10320;49.482;11.256;2023-07-13T04:51:36;2.40;;;1.90;;
20324;SDS011;10320;49.482;11.256;2023-07-13T04:54:02;3.10;;;2.00;;
20324;SDS011;10320;49.482;11.256;2023-07-13T04:56:28;3.00;;;2.00;;
20324;SDS011;10320;49.482;11.256;2023-07-13T04:58:55;3.27;;;1.90;;
20324;SDS011;10320;49.482;11.256;2023-07-13T05:01:21;2.47;;;1.90;;
20324;SDS011;10320;49.482;11.256;2023-07-13T05:03:47;3.17;;;2.00;;
20324;SDS011;10320;49.482;11.256;2023-07-13T05:06:13;2.08;;;1.70;;
20324;SDS011;10320;49.482;11.256;2023-07-13T05:08:39;3.33;;;1.67;;
20324;SDS011;10320;49.482;11.256;2023-07-13T05:11:05;2.72;;;1.70;;
20324;SDS011;10320;49.482;11.256;2023-07-13T05:13:32;4.13;;;1.90;;
20324;SDS011;10320;49.482;11.256;2023-07-13T05:15:59;6.30;;;2.20;;
20324;SDS011;10320;49.482;11.256;2023-07-13T05:18:25;3.15;;;1.60;;
20324;SDS011;10320;49.482;11.256;2023-07-13T05:20:58;5.30;;;1.98;;
20324;SDS011;10320;49.482;11.256;2023-07-13T05:23:25;3.00;;;1.90;;
20324;SDS011;10320;49.482;11.256;2023-07-13T05:25:51;3.33;;;2.25;;
20324;SDS011;10320;49.482;11.256;2023-07-13T05:28:17;1.75;;;1.65;;
20324;SDS011;10320;49.482;11.256;2023-07-13T05:30:49;5.43;;;2.00;;
20324;SDS011;10320;49.482;11.256;2023-07-13T05:33:15;6.03;;;1.98;;
20324;SDS011;10320;49.482;11.256;2023-07-13T05:35:41;3.40;;;2.08;;
20324;SDS011;10320;49.482;11.256;2023-07-13T05:38:07;2.13;;;1.60;;
20324;SDS011;10320;49.482;11.256;2023-07-13T05:40:33;2.65;;;1.70;;
20324;SDS011;10320;49.482;11.256;2023-07-13T05:42:59;3.42;;;2.05;;
20324;SDS011;10320;49.482;11.256;2023-07-13T05:45:28;1.90;;;1.67;;
20324;SDS011;10320;49.482;11.256;2023-07-13T05:47:54;2.78;;;2.05;;
20324;SDS011;10320;49.482;11.256;2023-07-13T05:50:20;2.80;;;2.00;;
20324;SDS011;10320;49.482;11.256;2023-07-13T05:52:46;2.65;;;1.63;;
20324;SDS011;10320;49.482;11.256;2023-07-13T05:55:12;2.05;;;1.70;;
20324;SDS011;10320;49.482;11.256;2023-07-13T05:57:38;5.13;;;1.90;;
20324;SDS011;10320;49.482;11.256;2023-07-13T06:00:04;2.47;;;1.77;;
20324;SDS011;10320;49.482;11.256;2023-07-13T06:02:31;3.22;;;1.70;;
20324;SDS011;10320;49.482;11.256;2023-07-13T06:04:57;2.83;;;1.80;;
20324;SDS011;10320;49.482;11.256;2023-07-13T06:07:23;3.45;;;1.70;;
20324;SDS011;10320;49.482;11.256;2023-07-13T06:09:49;2.83;;;1.80;;
20324;SDS011;10320;49.482;11.256;2023-07-13T06:12:16;3.50;;;1.73;;
20324;SDS011;10320;49.482;11.256;2023-07-13T06:14:42;4.05;;;1.70;;
20324;SDS011;10320;49.482;11.256;2023-07-13T06:17:08;3.30;;;1.90;;
20324;SDS011;10320;49.482;11.256;2023-07-13T06:19:34;4.68;;;1.85;;
20324;SDS011;10320;49.482;11.256;2023-07-13T06:22:00;4.07;;;1.70;;
20324;SDS011;10320;49.482;11.256;2023-07-13T06:24:26;3.22;;;1.75;;
20324;SDS011;10320;49.482;11.256;2023-07-13T06:26:52;3.30;;;1.67;;
20324;SDS011;10320;49.482;11.256;2023-07-13T06:29:18;3.47;;;1.80;;
20324;SDS011;10320;49.482;11.256;2023-07-13T06:31:44;3.55;;;2.10;;
20324;SDS011;10320;49.482;11.256;2023-07-13T06:34:10;2.20;;;1.70;;
20324;SDS011;10320;49.482;11.256;2023-07-13T06:36:36;2.55;;;1.83;;
20324;SDS011;10320;49.482;11.256;2023-07-13T06:39:03;4.25;;;2.00;;
20324;SDS011;10320;49.482;11.256;2023-07-13T06:41:29;2.70;;;1.85;;
20324;SDS011;10320;49.482;11.256;2023-07-13T06:43:55;2.45;;;1.63;;
20324;SDS011;10320;49.482;11.256;2023-07-13T06:46:22;4.07;;;1.90;;
20324;SDS011;10320;49.482;11.256;2023-07-13T06:48:48;2.53;;;1.85;;
20324;SDS011;10320;49.482;11.256;2023-07-13T06:51:14;2.58;;;1.80;;
20324;SDS011;10320;49.482;11.256;2023-07-13T06:53:40;1.77;;;1.50;;
20324;SDS011;10320;49.482;11.256;2023-07-13T06:56:08;3.22;;;1.80;;
20324;SDS011;10320;49.482;11.256;2023-07-13T06:58:35;4.10;;;1.52;;
20324;SDS011;10320;49.482;11.256;2023-07-13T07:01:01;2.92;;;1.65;;
20324;SDS011;10320;49.482;11.256;2023-07-13T07:03:27;4.25;;;1.73;;
20324;SDS011;10320;49.482;11.256;2023-07-13T07:05:53;5.05;;;1.80;;
20324;SDS011;10320;49.482;11.256;2023-07-13T07:08:19;2.88;;;1.77;;
20324;SDS011;10320;49.482;11.256;2023-07-13T07:10:45;3.50;;;1.90;;
20324;SDS011;10320;49.482;11.256;2023-07-13T07:13:11;2.05;;;1.70;;
20324;SDS011;10320;49.482;11.256;2023-07-13T07:15:39;2.58;;;1.70;;
20324;SDS011;10320;49.482;11.256;2023-07-13T07:18:05;2.63;;;1.70;;
20324;SDS011;10320;49.482;11.256;2023-07-13T07:20:31;4.85;;;1.80;;
20324;SDS011;10320;49.482;11.256;2023-07-13T07:22:57;3.97;;;1.60;;
20324;SDS011;10320;49.482;11.256;2023-07-13T07:25:23;3.58;;;1.65;;
20324;SDS011;10320;49.482;11.256;2023-07-13T07:27:51;1.92;;;1.70;;
20324;SDS011;10320;49.482;11.256;2023-07-13T07:30:17;2.45;;;1.30;;
20324;SDS011;10320;49.482;11.256;2023-07-13T07:32:43;2.47;;;1.70;;
20324;SDS011;10320;49.482;11.256;2023-07-13T07:35:09;4.45;;;1.65;;
20324;SDS011;10320;49.482;11.256;2023-07-13T07:37:35;2.40;;;1.42;;
20324;SDS011;10320;49.482;11.256;2023-07-13T07:40:01;3.30;;;1.80;;
20324;SDS011;10320;49.482;11.256;2023-07-13T07:42:27;4.32;;;1.80;;
20324;SDS011;10320;49.482;11.256;2023-07-13T07:44:54;2.30;;;1.77;;
20324;SDS011;10320;49.482;11.256;2023-07-13T07:47:20;2.53;;;1.38;;
20324;SDS011;10320;49.482;11.256;2023-07-13T07:49:48;4.25;;;1.90;;
20324;SDS011;10320;49.482;11.256;2023-07-13T07:52:14;2.67;;;1.65;;
20324;SDS011;10320;49.482;11.256;2023-07-13T07:54:40;3.17;;;1.75;;
20324;SDS011;10320;49.482;11.256;2023-07-13T07:57:06;1.73;;;1.50;;
20324;SDS011;10320;49.482;11.256;2023-07-13T07:59:33;2.10;;;1.50;;
20324;SDS011;10320;49.482;11.256;2023-07-13T08:01:59;2.70;;;1.50;;
20324;SDS011;10320;49.482;11.256;2023-07-13T08:04:27;2.22;;;1.40;;
20324;SDS011;10320;49.482;11.256;2023-07-13T08:06:53;3.53;;;1.73;;
20324;SDS011;10320;49.482;11.256;2023-07-13T08:09:21;2.90;;;1.83;;
20324;SDS011;10320;49.482;11.256;2023-07-13T08:11:47;5.47;;;2.05;;
20324;SDS011;10320;49.482;11.256;2023-07-13T08:14:13;3.58;;;1.85;;
20324;SDS011;10320;49.482;11.256;2023-07-13T08:16:40;4.03;;;1.73;;
20324;SDS011;10320;49.482;11.256;2023-07-13T08:19:06;4.43;;;1.65;;
20324;SDS011;10320;49.482;11.256;2023-07-13T08:21:32;3.72;;;1.73;;
20324;SDS011;10320;49.482;11.256;2023-07-13T08:23:58;3.88;;;1.80;;
20324;SDS011;10320;49.482;11.256;2023-07-13T08:26:24;2.45;;;1.80;;
20324;SDS011;10320;49.482;11.256;2023-07-13T08:28:50;4.93;;;1.83;;
20324;SDS011;10320;49.482;11.256;2023-07-13T08:31:16;3.20;;;1.90;;
20324;SDS011;10320;49.482;11.256;2023-07-13T08:33:42;2.10;;;1.52;;
20324;SDS011;10320;49.482;11.256;2023-07-13T08:36:08;1.92;;;1.70;;
20324;SDS011;10320;49.482;11.256;2023-07-13T08:38:34;3.45;;;1.70;;
20324;SDS011;10320;49.482;11.256;2023-07-13T08:41:02;2.10;;;1.50;;
20324;SDS011;10320;49.482;11.256;2023-07-13T08:43:30;3.03;;;1.40;;
20324;SDS011;10320;49.482;11.256;2023-07-13T08:46:02;4.07;;;1.38;;
20324;SDS011;10320;49.482;11.256;2023-07-13T08:48:48;1.73;;;1.10;;
20324;SDS011;10320;49.482;11.256;2023-07-13T08:54:02;1.80;;;1.30;;
20324;SDS011;10320;49.482;11.256;2023-07-13T08:56:29;1.95;;;1.13;;
20324;SDS011;10320;49.482;11.256;2023-07-13T08:59:12;2.95;;;1.13;;
20324;SDS011;10320;49.482;11.256;2023-07-13T09:04:16;2.83;;;1.10;;
20324;SDS011;10320;49.482;11.256;2023-07-13T09:11:56;2.83;;;1.35;;
20324;SDS011;10320;49.482;11.256;2023-07-13T09:14:26;1.88;;;1.30;;
20324;SDS011;10320;49.482;11.256;2023-07-13T09:16:56;2.60;;;1.40;;
20324;SDS011;10320;49.482;11.256;2023-07-13T09:19:27;3.28;;;1.30;;
20324;SDS011;10320;49.482;11.256;2023-07-13T09:21:54;1.33;;;1.20;;
20324;SDS011;10320;49.482;11.256;2023-07-13T09:24:29;1.48;;;1.25;;
20324;SDS011;10320;49.482;11.256;2023-07-13T09:26:56;2.00;;;1.30;;
20324;SDS011;10320;49.482;11.256;2023-07-13T09:29:29;1.38;;;1.02;;
20324;SDS011;10320;49.482;11.256;2023-07-13T09:31:58;1.67;;;1.13;;
20324;SDS011;10320;49.482;11.256;2023-07-13T09:34:27;3.78;;;1.38;;
20324;SDS011;10320;49.482;11.256;2023-07-13T09:36:56;2.17;;;1.40;;
20324;SDS011;10320;49.482;11.256;2023-07-13T09:39:39;1.67;;;1.20;;
20324;SDS011;10320;49.482;11.256;2023-07-13T09:44:36;2.10;;;1.42;;
20324;SDS011;10320;49.482;11.256;2023-07-13T09:47:02;2.00;;;1.25;;
20324;SDS011;10320;49.482;11.256;2023-07-13T09:49:32;1.92;;;1.23;;
20324;SDS011;10320;49.482;11.256;2023-07-13T09:52:06;2.67;;;1.40;;
20324;SDS011;10320;49.482;11.256;2023-07-13T09:54:35;2.53;;;1.60;;
20324;SDS011;10320;49.482;11.256;2023-07-13T09:57:03;4.50;;;1.48;;
20324;SDS011;10320;49.482;11.256;2023-07-13T09:59:33;2.60;;;1.30;;
20324;SDS011;10320;49.482;11.256;2023-07-13T10:01:59;3.95;;;1.48;;
20324;SDS011;10320;49.482;11.256;2023-07-13T10:04:33;2.33;;;1.35;;
20324;SDS011;10320;49.482;11.256;2023-07-13T10:07:06;1.35;;;1.25;;
20324;SDS011;10320;49.482;11.256;2023-07-13T10:09:33;2.15;;;1.20;;
20324;SDS011;10320;49.482;11.256;2023-07-13T10:11:59;1.63;;;1.15;;
20324;SDS011;10320;49.482;11.256;2023-07-13T10:14:25;2.05;;;1.30;;
20324;SDS011;10320;49.482;11.256;2023-07-13T10:16:52;2.58;;;1.60;;
20324;SDS011;10320;49.482;11.256;2023-07-13T10:19:25;3.15;;;1.38;;
20324;SDS011;10320;49.482;11.256;2023-07-13T10:21:56;2.03;;;1.60;;
20324;SDS011;10320;49.482;11.256;2023-07-13T10:24:25;1.92;;;1.27;;
20324;SDS011;10320;49.482;11.256;2023-07-13T10:26:56;2.42;;;1.40;;
20324;SDS011;10320;49.482;11.256;2023-07-13T10:29:24;3.13;;;1.30;;
20324;SDS011;10320;49.482;11.256;2023-07-13T10:31:51;1.92;;;1.13;;
20324;SDS011;10320;49.482;11.256;2023-07-13T10:34:17;1.20;;;1.10;;
20324;SDS011;10320;49.482;11.256;2023-07-13T10:36:44;2.15;;;1.40;;
20324;SDS011;10320;49.482;11.256;2023-07-13T10:39:18;2.95;;;1.35;;
20324;SDS011;10320;49.482;11.256;2023-07-13T10:41:44;2.85;;;1.42;;
20324;SDS011;10320;49.482;11.256;2023-07-13T10:44:23;2.25;;;1.55;;
20324;SDS011;10320;49.482;11.256;2023-07-13T10:46:52;1.38;;;1.20;;
20324;SDS011;10320;49.482;11.256;2023-07-13T10:49:19;2.67;;;1.40;;
20324;SDS011;10320;49.482;11.256;2023-07-13T10:51:46;1.73;;;1.17;;
20324;SDS011;10320;49.482;11.256;2023-07-13T10:56:47;2.80;;;1.50;;
20324;SDS011;10320;49.482;11.256;2023-07-13T10:59:23;1.63;;;1.40;;
20324;SDS011;10320;49.482;11.256;2023-07-13T11:01:55;2.92;;;1.45;;
20324;SDS011;10320;49.482;11.256;2023-07-13T11:04:22;2.28;;;1.40;;
20324;SDS011;10320;49.482;11.256;2023-07-13T11:06:50;3.13;;;1.58;;
20324;SDS011;10320;49.482;11.256;2023-07-13T11:09:19;3.45;;;1.60;;
20324;SDS011;10320;49.482;11.256;2023-07-13T11:11:45;2.55;;;1.27;;
20324;SDS011;10320;49.482;11.256;2023-07-13T11:16:56;3.13;;;1.42;;
20324;SDS011;10320;49.482;11.256;2023-07-13T11:22:10;3.10;;;1.40;;
20324;SDS011;10320;49.482;11.256;2023-07-13T11:24:57;2.05;;;1.25;;
20324;SDS011;10320;49.482;11.256;2023-07-13T11:27:37;1.88;;;1.27;;
20324;SDS011;10320;49.482;11.256;2023-07-13T11:30:23;2.38;;;1.20;;
20324;SDS011;10320;49.482;11.256;2023-07-13T11:35:41;1.67;;;1.27;;
20324;SDS011;10320;49.482;11.256;2023-07-13T11:38:12;2.50;;;1.40;;
20324;SDS011;10320;49.482;11.256;2023-07-13T11:40:40;2.88;;;1.40;;
20324;SDS011;10320;49.482;11.256;2023-07-13T11:43:06;3.10;;;1.30;;
20324;SDS011;10320;49.482;11.256;2023-07-13T11:45:32;1.60;;;1.33;;
20324;SDS011;10320;49.482;11.256;2023-07-13T11:47:59;2.55;;;1.48;;
20324;SDS011;10320;49.482;11.256;2023-07-13T11:50:26;1.30;;;1.20;;
20324;SDS011;10320;49.482;11.256;2023-07-13T11:52:53;3.08;;;1.25;;
20324;SDS011;10320;49.482;11.256;2023-07-13T11:55:21;1.60;;;1.10;;
20324;SDS011;10320;49.482;11.256;2023-07-13T11:57:59;3.13;;;1.42;;
20324;SDS011;10320;49.482;11.256;2023-07-13T12:00:28;2.95;;;1.40;;
20324;SDS011;10320;49.482;11.256;2023-07-13T12:02:55;3.38;;;1.60;;
20324;SDS011;10320;49.482;11.256;2023-07-13T12:05:22;2.15;;;1.27;;
20324;SDS011;10320;49.482;11.256;2023-07-13T12:07:48;3.22;;;1.50;;
20324;SDS011;10320;49.482;11.256;2023-07-13T12:10:22;1.95;;;1.60;;
20324;SDS011;10320;49.482;11.256;2023-07-13T12:15:16;3.92;;;1.60;;
20324;SDS011;10320;49.482;11.256;2023-07-13T12:17:42;1.98;;;1.40;;
20324;SDS011;10320;49.482;11.256;2023-07-13T12:20:17;2.97;;;1.70;;
20324;SDS011;10320;49.482;11.256;2023-07-13T12:22:47;8.35;;;1.90;;
20324;SDS011;10320;49.482;11.256;2023-07-13T12:25:13;1.58;;;1.02;;
20324;SDS011;10320;49.482;11.256;2023-07-13T12:27:40;1.65;;;1.20;;
20324;SDS011;10320;49.482;11.256;2023-07-13T12:33:08;3.85;;;1.30;;
20324;SDS011;10320;49.482;11.256;2023-07-13T12:35:45;2.78;;;1.27;;
20324;SDS011;10320;49.482;11.256;2023-07-13T12:38:11;1.42;;;1.20;;
20324;SDS011;10320;49.482;11.256;2023-07-13T12:40:38;1.90;;;1.60;;
20324;SDS011;10320;49.482;11.256;2023-07-13T12:43:09;1.88;;;1.40;;
20324;SDS011;10320;49.482;11.256;2023-07-13T12:45:36;1.90;;;1.60;;
20324;SDS011;10320;49.482;11.256;2023-07-13T12:48:16;3.63;;;1.60;;
20324;SDS011;10320;49.482;11.256;2023-07-13T12:50:45;1.88;;;1.60;;
20324;SDS011;10320;49.482;11.256;2023-07-13T12:53:16;5.07;;;2.03;;
20324;SDS011;10320;49.482;11.256;2023-07-13T12:55:49;2.35;;;1.25;;
20324;SDS011;10320;49.482;11.256;2023-07-13T12:58:21;3.38;;;1.65;;
20324;SDS011;10320;49.482;11.256;2023-07-13T13:00:50;2.00;;;1.55;;
20324;SDS011;10320;49.482;11.256;2023-07-13T13:05:46;4.03;;;1.30;;
20324;SDS011;10320;49.482;11.256;2023-07-13T13:08:12;3.13;;;1.50;;
20324;SDS011;10320;49.482;11.256;2023-07-13T13:10:38;2.60;;;1.50;;
20324;SDS011;10320;49.482;11.256;2023-07-13T13:13:04;2.17;;;1.45;;
20324;SDS011;10320;49.482;11.256;2023-07-13T13:15:30;2.33;;;1.33;;
20324;SDS011;10320;49.482;11.256;2023-07-13T13:17:57;4.75;;;1.80;;
20324;SDS011;10320;49.482;11.256;2023-07-13T13:20:24;1.20;;;1.10;;
20324;SDS011;10320;49.482;11.256;2023-07-13T13:22:53;2.13;;;1.50;;
20324;SDS011;10320;49.482;11.256;2023-07-13T13:25:21;2.25;;;1.50;;
20324;SDS011;10320;49.482;11.256;2023-07-13T13:27:47;1.80;;;1.40;;
20324;SDS011;10320;49.482;11.256;2023-07-13T13:30:16;2.63;;;1.70;;
20324;SDS011;10320;49.482;11.256;2023-07-13T13:32:43;1.85;;;1.40;;
20324;SDS011;10320;49.482;11.256;2023-07-13T13:35:13;2.05;;;1.50;;
20324;SDS011;10320;49.482;11.256;2023-07-13T13:37:39;3.00;;;1.50;;
20324;SDS011;10320;49.482;11.256;2023-07-13T13:40:15;3.67;;;1.70;;
20324;SDS011;10320;49.482;11.256;2023-07-13T13:42:42;3.15;;;1.80;;
20324;SDS011;10320;49.482;11.256;2023-07-13T13:45:11;3.00;;;1.50;;
20324;SDS011;10320;49.482;11.256;2023-07-13T13:47:37;3.95;;;1.77;;
20324;SDS011;10320;49.482;11.256;2023-07-13T13:50:14;3.88;;;1.55;;
20324;SDS011;10320;49.482;11.256;2023-07-13T13:52:42;2.00;;;1.50;;
20324;SDS011;10320;49.482;11.256;2023-07-13T13:55:14;1.40;;;1.30;;
20324;SDS011;10320;49.482;11.256;2023-07-13T13:57:40;2.15;;;1.50;;
20324;SDS011;10320;49.482;11.256;2023-07-13T14:00:08;2.70;;;1.42;;
20324;SDS011;10320;49.482;11.256;2023-07-13T14:02:34;2.47;;;1.48;;
20324;SDS011;10320;49.482;11.256;2023-07-13T14:05:01;2.47;;;1.13;;
20324;SDS011;10320;49.482;11.256;2023-07-13T14:07:28;2.53;;;1.50;;
20324;SDS011;10320;49.482;11.256;2023-07-13T14:09:58;2.97;;;1.50;;
20324;SDS011;10320;49.482;11.256;2023-07-13T14:12:26;1.67;;;1.30;;
20324;SDS011;10320;49.482;11.256;2023-07-13T14:14:53;1.67;;;1.20;;
20324;SDS011;10320;49.482;11.256;2023-07-13T14:17:23;2.88;;;1.58;;
20324;SDS011;10320;49.482;11.256;2023-07-13T14:19:51;2.13;;;1.35;;
20324;SDS011;10320;49.482;11.256;2023-07-13T14:22:22;3.80;;;1.58;;
20324;SDS011;10320;49.482;11.256;2023-07-13T14:24:48;4.20;;;1.35;;
20324;SDS011;10320;49.482;11.256;2023-07-13T14:27:14;3.08;;;1.45;;
20324;SDS011;10320;49.482;11.256;2023-07-13T14:29:40;2.97;;;1.40;;
20324;SDS011;10320;49.482;11.256;2023-07-13T14:32:10;2.22;;;1.50;;
20324;SDS011;10320;49.482;11.256;2023-07-13T14:34:36;2.85;;;1.38;;
20324;SDS011;10320;49.482;11.256;2023-07-13T14:37:03;5.05;;;1.52;;
20324;SDS011;10320;49.482;11.256;2023-07-13T14:39:29;1.80;;;1.45;;
20324;SDS011;10320;49.482;11.256;2023-07-13T14:41:56;3.20;;;1.60;;
20324;SDS011;10320;49.482;11.256;2023-07-13T14:44:26;2.60;;;1.20;;
20324;SDS011;10320;49.482;11.256;2023-07-13T14:46:54;2.80;;;1.60;;
20324;SDS011;10320;49.482;11.256;2023-07-13T14:51:47;1.90;;;1.27;;
20324;SDS011;10320;49.482;11.256;2023-07-13T14:54:13;3.25;;;1.55;;
20324;SDS011;10320;49.482;11.256;2023-07-13T14:56:39;3.80;;;1.40;;
20324;SDS011;10320;49.482;11.256;2023-07-13T14:59:05;3.65;;;1.60;;
20324;SDS011;10320;49.482;11.256;2023-07-13T15:01:33;2.45;;;1.42;;
20324;SDS011;10320;49.482;11.256;2023-07-13T15:04:00;3.22;;;1.70;;
20324;SDS011;10320;49.482;11.256;2023-07-13T15:06:26;1.88;;;1.38;;
20324;SDS011;10320;49.482;11.256;2023-07-13T15:08:53;2.25;;;1.38;;
20324;SDS011;10320;49.482;11.256;2023-07-13T15:11:20;1.58;;;1.38;;